KHFD Airport (Hartford-Brainard) Information

FAA: HFD - ICAO: KHFD

KHFD Airport Location

State Connecticut
County Hartford
City Hartford
KHFD Airport is 3 miles southeast of Hartford, CT.
Latitude 41-44-12.2000N
Longitude 072-38-58.0000W
Elevation 18ft

KHFD Airport METARs

METAR KHFD 070753Z AUTO 29009KT 10SM CLR 04/M06 A2993 RMK AO2 SLP135 T00441056
Altimeter 29.93"
Temperature 4.4°C (39.9°F)
Wind 290° at 9KT
Clouds Skies are clear.
Visibility 10.0mi
Time observed: 2021-12-07T07:53:00Z

KHFD Airport Details

Status Operational
Activation April 1940
Ownership Public
Usage Public
Chart NEW YORK
ATC on-site Yes
Beacon schedule sunset-sunrise
Beacon color clear green

KHFD Airport Contacts

Owner CONNECTICUT AIRPORT AUTHORITY
Owner address SUITE 160, 334 ELLA GRASSO TURNPIKE, WINDSOR LOCKS, CT 06096
Owner phone 860-386-6000
Manager LEE MICHAEL PARTYKA
Manager address 200 SKIFF STREET, HAMDEN, CT 06517
Manager phone 203-288-7761

KHFD Airport (Hartford-Brainard) Radio Frequencies

KHFD (Airport) Radio Frequencies

UNICOM 122.95
Common traffic advisory frequency (CTAF) 119.6